This is the latest recevied weather packets stored in our database for station/object K9RCP-24. If no packets are shown the sender has not sent any weather packets the latest 10 day(s).
| Time | Temp. | Humidity | Pressure | Rain* | Wind** | Luminosity | Snow |
|---|---|---|---|---|---|---|---|
| 1777774121 | 18.89° C | 64% | 1014.6 hPa | 0 mm | - | - | - |
| 1777772862 | 18.89° C | 64% | 1014.6 hPa | 0 mm | - | - | - |
| 1777772737 | 18.89° C | 63% | 1014.2 hPa | 0 mm | - | - | - |
| 1777772485 | 18.89° C | 63% | 1013.9 hPa | 0 mm | - | - | - |
| 1777772461 | 19.44° C | 63% | 1013.5 hPa | 0 mm | - | - | - |
| 1777770671 | 20° C | 62% | 1013.5 hPa | 0 mm | - | - | - |
| 1777770418 | 20° C | 61% | 1013.5 hPa | 0 mm | - | - | - |
| 1777770169 | 20° C | 61% | 1013.5 hPa | 0 mm | - | - | - |
| 1777769889 | 20° C | 61% | 1013.5 hPa | 4.32 mm | - | - | - |
| 1777769765 | 19.44° C | 61% | 1013.5 hPa | 4.32 mm | - | - | - |
| 1777764734 | 19.44° C | 62% | 1016.3 hPa | 0 mm | - | - | - |
| 1777762910 | 20° C | 60% | 1017.3 hPa | 0 mm | - | - | - |
| 1777761976 | 20° C | 57% | 1016.9 hPa | 0 mm | - | - | - |
| 1777761849 | 20° C | 56% | 1016.9 hPa | 0 mm | - | - | - |
| 1777761724 | 20° C | 58% | 1016.9 hPa | 0 mm | - | - | - |
| 1777761339 | 20.56° C | 55% | 1016.9 hPa | 0 mm | - | - | - |
| 1777761316 | 20.56° C | 55% | 1017.3 hPa | 0 mm | - | - | - |
| 1777760650 | 20.56° C | 57% | 1017.3 hPa | 0 mm | - | - | - |
| 1777760628 | 21.11° C | 55% | 1017.3 hPa | 0 mm | - | - | - |
| 1777760468 | 21.11° C | 56% | 1017.3 hPa | 0 mm | - | - | - |
| 1777759284 | 19.44° C | 59% | 1017.6 hPa | 0 mm | - | - | - |
| 1777758651 | 20° C | 56% | 1017.9 hPa | 0 mm | - | - | - |
| 1777758215 | 19.44° C | 58% | 1017.6 hPa | 0 mm | - | - | - |
| 1777757955 | 18.89° C | 59% | 1017.9 hPa | 0 mm | - | - | - |
| 1777757805 | 18.89° C | 61% | 1017.6 hPa | 0 mm | - | - | - |
* Rain latest hour (hover to see other rain measurements)
** Current wind speed in m/s (hover to see current wind gust speed)